createdAt,value
2019-04-16T00:00:06.082Z,60.00
2019-04-16T00:02:54.406Z,59.80
2019-04-16T00:05:27.760Z,59.70
2019-04-16T00:07:56.237Z,59.90
2019-04-16T00:10:30.836Z,59.90
2019-04-16T00:12:59.229Z,60.00
2019-04-16T00:15:25.857Z,61.40
2019-04-16T00:17:52.257Z,61.40
2019-04-16T00:20:18.952Z,61.20
2019-04-16T00:23:03.800Z,60.50
2019-04-16T00:25:30.579Z,60.10
2019-04-16T00:28:00.168Z,59.70
2019-04-16T00:30:25.781Z,59.80
2019-04-16T00:32:52.348Z,59.80
2019-04-16T00:35:18.901Z,59.90
2019-04-16T00:37:45.566Z,60.00
2019-04-16T00:40:12.417Z,60.70
2019-04-16T00:42:39.010Z,62.20
2019-04-16T00:45:06.540Z,61.80
2019-04-16T00:47:33.223Z,62.70
2019-04-16T00:50:00.039Z,61.60
2019-04-16T00:52:28.056Z,61.60
2019-04-16T00:54:54.663Z,61.20
2019-04-16T00:57:21.279Z,61.70
2019-04-16T00:59:47.926Z,61.10
2019-04-16T01:02:14.532Z,61.30
2019-04-16T01:04:41.252Z,60.90
2019-04-16T01:07:07.722Z,60.90
2019-04-16T01:09:34.358Z,63.60
2019-04-16T01:12:01.100Z,65.40
2019-04-16T01:14:27.658Z,65.30
2019-04-16T01:16:54.304Z,65.50
2019-04-16T01:19:20.860Z,65.00
2019-04-16T01:21:47.382Z,64.60
2019-04-16T01:24:13.959Z,65.00
2019-04-16T01:26:40.779Z,65.20
2019-04-16T01:29:09.196Z,65.00
2019-04-16T01:31:40.176Z,65.60
2019-04-16T01:34:25.387Z,65.90
2019-04-16T01:36:56.764Z,66.30
2019-04-16T01:39:28.094Z,66.50
2019-04-16T01:41:54.597Z,66.40
2019-04-16T01:44:21.261Z,66.30
2019-04-16T01:46:47.855Z,66.50
2019-04-16T01:49:14.277Z,66.40
2019-04-16T01:51:40.725Z,66.50
2019-04-16T01:54:07.293Z,65.60
2019-04-16T01:56:33.687Z,66.10
2019-04-16T01:59:04.547Z,66.80
2019-04-16T02:01:28.809Z,66.90
2019-04-16T02:03:55.639Z,66.70
2019-04-16T02:06:25.721Z,66.50
2019-04-16T02:08:50.493Z,66.60
2019-04-16T02:11:16.985Z,66.20
2019-04-16T02:13:46.159Z,65.80
2019-04-16T02:16:12.014Z,66.10
2019-04-16T02:18:38.739Z,66.30
2019-04-16T02:21:09.634Z,66.70
2019-04-16T02:23:33.692Z,66.20
2019-04-16T02:26:00.213Z,66.60
2019-04-16T02:28:28.309Z,66.20
2019-04-16T02:30:56.203Z,66.80
2019-04-16T02:33:22.591Z,66.80
2019-04-16T02:35:49.100Z,66.60
2019-04-16T02:38:15.530Z,66.80
2019-04-16T02:40:41.957Z,67.00
2019-04-16T02:43:08.485Z,67.00
2019-04-16T02:45:35.088Z,67.80
2019-04-16T02:48:01.876Z,68.20
2019-04-16T02:50:33.188Z,68.00
2019-04-16T02:53:08.697Z,69.00
2019-04-16T02:55:42.632Z,68.90
2019-04-16T02:58:16.732Z,67.00
2019-04-16T03:00:49.106Z,66.80
2019-04-16T03:03:15.529Z,66.10
2019-04-16T03:05:44.179Z,66.40
2019-04-16T03:08:10.765Z,65.80
2019-04-16T03:10:37.320Z,65.80
2019-04-16T03:13:03.826Z,66.20
2019-04-16T03:15:33.769Z,65.80
2019-04-16T03:18:00.591Z,66.80
2019-04-16T03:20:27.237Z,66.60
2019-04-16T03:22:54.025Z,65.50
2019-04-16T03:25:20.649Z,64.60
2019-04-16T03:27:47.070Z,63.80
2019-04-16T03:30:13.698Z,64.00
2019-04-16T03:32:48.233Z,64.50
2019-04-16T03:35:14.790Z,63.40
2019-04-16T03:37:41.461Z,63.70
2019-04-16T03:40:16.252Z,64.10
2019-04-16T03:42:36.202Z,64.60
2019-04-16T03:45:09.182Z,66.20
2019-04-16T03:47:34.103Z,66.40
2019-04-16T03:50:00.804Z,64.10
2019-04-16T03:52:28.732Z,65.00
2019-04-16T03:54:55.053Z,63.50
2019-04-16T03:57:21.369Z,63.50
2019-04-16T03:59:47.776Z,63.10
2019-04-16T04:02:15.559Z,64.70
2019-04-16T04:04:42.897Z,67.80
2019-04-16T04:07:12.006Z,67.40
2019-04-16T04:09:37.967Z,66.20
2019-04-16T04:12:04.469Z,66.30
2019-04-16T04:14:30.986Z,66.00
2019-04-16T04:16:57.729Z,65.50
2019-04-16T04:19:24.158Z,67.70
2019-04-16T04:21:53.552Z,69.20
2019-04-16T04:24:19.119Z,68.30
2019-04-16T04:26:45.629Z,67.60
2019-04-16T04:29:13.363Z,67.70
2019-04-16T04:31:39.922Z,69.10
2019-04-16T04:34:10.958Z,69.40
2019-04-16T04:36:39.952Z,68.70
2019-04-16T04:39:09.939Z,69.10
2019-04-16T04:41:35.216Z,68.90
2019-04-16T04:44:04.362Z,68.50
2019-04-16T04:46:30.134Z,68.90
2019-04-16T04:49:00.046Z,68.80
2019-04-16T04:51:24.988Z,70.80
2019-04-16T04:53:51.520Z,70.60
2019-04-16T04:56:19.790Z,70.70
2019-04-16T04:58:46.313Z,71.20
2019-04-16T05:01:14.174Z,70.20
2019-04-16T05:03:47.539Z,68.60
2019-04-16T05:06:15.245Z,68.70
2019-04-16T05:08:41.631Z,69.40
2019-04-16T05:11:08.237Z,70.30
2019-04-16T05:13:34.927Z,70.60
2019-04-16T05:16:02.641Z,69.80
2019-04-16T05:18:29.827Z,70.40
2019-04-16T05:20:56.281Z,69.60
2019-04-16T05:23:25.942Z,69.50
2019-04-16T05:25:51.143Z,69.30
2019-04-16T05:28:18.959Z,69.60
2019-04-16T05:30:45.519Z,68.90
2019-04-16T05:33:12.018Z,68.50
2019-04-16T05:35:41.089Z,69.60
2019-04-16T05:38:07.016Z,69.00
2019-04-16T05:40:35.268Z,66.50
2019-04-16T05:43:01.789Z,66.40
2019-04-16T05:45:28.393Z,67.40
2019-04-16T05:47:55.057Z,67.40
2019-04-16T05:50:21.706Z,67.10
2019-04-16T05:52:48.270Z,66.00
2019-04-16T05:55:22.338Z,65.90
2019-04-16T05:57:50.777Z,66.40
2019-04-16T06:00:21.938Z,66.90
2019-04-16T06:02:50.503Z,67.50
2019-04-16T06:05:16.676Z,67.40
2019-04-16T06:07:43.256Z,66.90
2019-04-16T06:10:09.874Z,66.20
2019-04-16T06:12:41.117Z,66.40
2019-04-16T06:15:27.548Z,66.30
2019-04-16T06:18:11.402Z,64.80
2019-04-16T06:20:40.073Z,65.20
2019-04-16T06:23:23.713Z,63.70
2019-04-16T06:25:52.070Z,64.60
2019-04-16T06:28:23.435Z,63.20
2019-04-16T06:30:58.075Z,63.60
2019-04-16T06:33:29.523Z,62.90
2019-04-16T06:35:58.000Z,61.90
2019-04-16T06:38:26.675Z,61.80
2019-04-16T06:41:06.949Z,62.40
2019-04-16T06:43:38.316Z,62.40
2019-04-16T06:46:09.602Z,62.00
2019-04-16T06:48:50.061Z,62.40
2019-04-16T06:51:35.217Z,62.10
2019-04-16T06:54:12.737Z,62.40
2019-04-16T06:56:41.200Z,63.00
2019-04-16T06:59:09.710Z,63.40
2019-04-16T07:01:41.516Z,64.00
2019-04-16T07:04:11.348Z,64.70
2019-04-16T07:06:48.713Z,65.60
2019-04-16T07:09:25.772Z,67.10
2019-04-16T07:11:54.823Z,66.50
2019-04-16T07:14:21.875Z,66.60
2019-04-16T07:16:48.554Z,66.80
2019-04-16T07:19:16.832Z,66.80
2019-04-16T07:21:48.551Z,66.80
2019-04-16T07:24:11.945Z,66.60
2019-04-16T07:26:39.819Z,66.70
2019-04-16T07:29:31.623Z,66.50
2019-04-16T07:32:13.731Z,66.30
2019-04-16T07:34:51.051Z,65.20
2019-04-16T07:37:19.411Z,65.30
2019-04-16T07:39:59.754Z,65.10
2019-04-16T07:42:50.995Z,64.70
2019-04-16T07:45:11.369Z,61.40
2019-04-16T07:47:55.363Z,59.00
2019-04-16T07:50:23.969Z,58.20
2019-04-16T07:52:55.431Z,58.40
2019-04-16T07:55:26.754Z,57.90
2019-04-16T07:57:54.162Z,57.40
2019-04-16T08:00:20.815Z,56.60
2019-04-16T08:02:47.408Z,56.60
2019-04-16T08:05:14.259Z,54.80
2019-04-16T08:07:40.772Z,56.10
2019-04-16T08:10:07.374Z,56.90
2019-04-16T08:12:35.181Z,55.30
2019-04-16T08:15:13.781Z,54.70
2019-04-16T08:17:34.417Z,54.60
2019-04-16T08:20:01.781Z,54.30
2019-04-16T08:22:29.518Z,54.30
2019-04-16T08:25:03.829Z,54.70
2019-04-16T08:27:29.334Z,53.70
2019-04-16T08:29:55.767Z,54.30
2019-04-16T08:32:25.527Z,55.50
2019-04-16T08:34:50.886Z,55.10
2019-04-16T08:37:17.489Z,55.00
2019-04-16T08:39:44.033Z,55.10
2019-04-16T08:42:10.696Z,54.40
2019-04-16T08:44:37.307Z,54.90
2019-04-16T08:47:03.726Z,54.20
2019-04-16T08:49:30.502Z,54.10
2019-04-16T08:51:57.173Z,54.20
2019-04-16T08:54:23.751Z,54.40
2019-04-16T08:56:50.374Z,52.80
2019-04-16T08:59:16.840Z,52.00
2019-04-16T09:01:43.606Z,52.60
2019-04-16T09:04:10.254Z,53.20
2019-04-16T09:06:36.842Z,52.70
2019-04-16T09:09:14.188Z,52.50
2019-04-16T09:11:38.068Z,53.00
2019-04-16T09:14:06.086Z,53.30
2019-04-16T09:16:49.433Z,53.30
2019-04-16T09:19:17.965Z,53.00
2019-04-16T09:21:44.637Z,53.10
2019-04-16T09:24:29.996Z,53.20
2019-04-16T09:27:01.268Z,53.10
2019-04-16T09:29:45.006Z,52.80
2019-04-16T09:32:19.406Z,54.10
2019-04-16T09:35:08.118Z,53.30
2019-04-16T09:37:35.631Z,53.40
2019-04-16T09:40:16.495Z,52.40
2019-04-16T09:42:35.483Z,52.90
2019-04-16T09:45:08.866Z,52.40
2019-04-16T09:47:35.458Z,52.80
2019-04-16T09:50:03.138Z,51.80
2019-04-16T09:52:29.935Z,51.70
2019-04-16T09:54:58.389Z,51.70
2019-04-16T09:57:24.961Z,52.60
2019-04-16T09:59:53.589Z,52.20
2019-04-16T10:02:22.054Z,51.30
2019-04-16T10:04:48.824Z,51.10
2019-04-16T10:07:15.390Z,49.90
2019-04-16T10:09:42.101Z,49.50
2019-04-16T10:12:08.695Z,49.20
2019-04-16T10:14:35.427Z,49.00
2019-04-16T10:17:04.401Z,49.60
2019-04-16T10:19:32.009Z,48.20
2019-04-16T10:21:58.585Z,48.00
2019-04-16T10:24:45.231Z,49.90
2019-04-16T10:27:13.640Z,51.20
2019-04-16T10:29:40.224Z,48.30
2019-04-16T10:32:06.928Z,48.50
2019-04-16T10:34:36.164Z,46.70
2019-04-16T10:37:02.974Z,46.00
2019-04-16T10:39:34.208Z,46.90
2019-04-16T10:42:06.976Z,45.90
2019-04-16T10:44:37.013Z,45.50
2019-04-16T10:47:20.617Z,46.20
2019-04-16T10:49:49.653Z,46.50
2019-04-16T10:52:35.033Z,46.00
2019-04-16T10:55:09.132Z,45.70
2019-04-16T10:57:39.969Z,46.80
2019-04-16T11:00:25.926Z,45.90
2019-04-16T11:02:54.413Z,46.80
2019-04-16T11:05:39.732Z,46.30
2019-04-16T11:08:08.065Z,45.70
2019-04-16T11:10:34.957Z,49.00
2019-04-16T11:13:03.587Z,45.80
2019-04-16T11:15:30.304Z,45.50
2019-04-16T11:17:57.080Z,49.50
2019-04-16T11:20:24.223Z,48.60
2019-04-16T11:22:50.878Z,47.40
2019-04-16T11:25:17.702Z,46.30
2019-04-16T11:27:44.431Z,42.20
2019-04-16T11:30:16.946Z,43.30
2019-04-16T11:32:43.445Z,41.80
2019-04-16T11:35:13.040Z,38.50
2019-04-16T11:37:43.734Z,40.70
2019-04-16T11:40:08.214Z,41.40
2019-04-16T11:42:34.838Z,43.10
2019-04-16T11:45:01.587Z,43.40
2019-04-16T11:47:31.126Z,44.60
2019-04-16T11:49:56.592Z,42.60
2019-04-16T11:52:23.134Z,43.50
2019-04-16T11:54:49.573Z,41.70
2019-04-16T11:57:15.984Z,40.50
2019-04-16T11:59:42.564Z,42.50
2019-04-16T12:02:16.603Z,40.40
2019-04-16T12:05:01.879Z,40.90
2019-04-16T12:07:33.255Z,41.40
2019-04-16T12:10:01.701Z,40.50
2019-04-16T12:12:39.401Z,41.20
2019-04-16T12:15:23.261Z,40.70
2019-04-16T12:17:57.372Z,40.60
2019-04-16T12:20:44.017Z,40.50
2019-04-16T12:23:21.671Z,40.50
2019-04-16T12:26:02.136Z,41.00
2019-04-16T12:28:30.776Z,41.70
2019-04-16T12:30:59.343Z,41.20
2019-04-16T12:33:33.765Z,42.10
2019-04-16T12:36:02.455Z,40.50
2019-04-16T12:38:40.159Z,39.60
2019-04-16T12:41:08.594Z,40.70
2019-04-16T12:43:42.969Z,40.00
2019-04-16T12:46:11.517Z,39.40
2019-04-16T12:48:46.066Z,39.70
2019-04-16T12:51:14.513Z,40.10
2019-04-16T12:53:42.885Z,39.40
2019-04-16T12:56:11.424Z,40.70
2019-04-16T12:58:58.124Z,40.00
2019-04-16T13:01:29.486Z,39.10
2019-04-16T13:03:58.052Z,39.70
2019-04-16T13:06:32.519Z,39.00
2019-04-16T13:09:11.206Z,38.80
2019-04-16T13:11:46.247Z,38.30
2019-04-16T13:14:17.708Z,39.20
2019-04-16T13:16:49.037Z,39.00
2019-04-16T13:19:34.250Z,37.80
2019-04-16T13:22:04.345Z,38.30
2019-04-16T13:24:41.614Z,39.10
2019-04-16T13:27:10.323Z,39.10
2019-04-16T13:29:37.307Z,37.80
2019-04-16T13:32:05.164Z,38.20
2019-04-16T13:34:31.984Z,36.90
2019-04-16T13:36:59.636Z,34.70
2019-04-16T13:39:29.426Z,34.60
2019-04-16T13:41:56.078Z,33.90
2019-04-16T13:44:27.593Z,33.30
2019-04-16T13:46:54.270Z,33.60
2019-04-16T13:49:24.453Z,33.20
2019-04-16T13:51:51.893Z,32.50
2019-04-16T13:54:23.233Z,30.50
2019-04-16T13:56:54.170Z,32.00
2019-04-16T13:59:22.708Z,33.00
2019-04-16T14:01:59.126Z,34.10
2019-04-16T14:04:30.551Z,34.90
2019-04-16T14:06:54.402Z,31.00
2019-04-16T14:09:23.460Z,31.40
2019-04-16T14:11:51.306Z,29.10
2019-04-16T14:14:22.472Z,29.80
2019-04-16T14:16:47.342Z,31.50
2019-04-16T14:19:14.123Z,32.10
2019-04-16T14:21:40.698Z,34.30
2019-04-16T14:24:07.352Z,35.10
2019-04-16T14:26:33.983Z,35.80
2019-04-16T14:29:05.569Z,35.30
2019-04-16T14:31:28.845Z,35.30
2019-04-16T14:34:00.016Z,34.70
2019-04-16T14:36:27.231Z,35.10
2019-04-16T14:38:55.719Z,35.60
2019-04-16T14:41:22.390Z,35.80
2019-04-16T14:44:03.508Z,35.70
2019-04-16T14:46:30.583Z,35.20
2019-04-16T14:48:57.220Z,33.90
2019-04-16T14:51:23.643Z,31.50
2019-04-16T14:53:52.150Z,30.60
2019-04-16T14:56:21.897Z,31.30
2019-04-16T14:58:53.528Z,31.20
2019-04-16T15:01:27.616Z,29.70
2019-04-16T15:03:59.494Z,30.80
2019-04-16T15:06:28.072Z,31.00
2019-04-16T15:08:56.995Z,34.10
2019-04-16T15:11:42.401Z,35.10
2019-04-16T15:14:20.003Z,35.00
2019-04-16T15:16:50.820Z,35.70
2019-04-16T15:19:27.486Z,36.20
2019-04-16T15:22:14.504Z,35.10
2019-04-16T15:24:51.994Z,31.30
2019-04-16T15:27:37.209Z,32.50
2019-04-16T15:30:28.575Z,32.20
2019-04-16T15:33:12.898Z,29.10
2019-04-16T15:35:56.660Z,28.50
2019-04-16T15:38:37.342Z,28.10
2019-04-16T15:41:17.406Z,27.30
2019-04-16T15:44:01.661Z,26.00
2019-04-16T15:46:41.335Z,26.00
2019-04-16T15:49:29.188Z,25.20
2019-04-16T15:52:09.497Z,25.10
2019-04-16T15:54:37.383Z,26.80
2019-04-16T15:57:07.988Z,28.00
2019-04-16T15:59:36.316Z,28.20
2019-04-16T16:02:21.421Z,28.50
2019-04-16T16:04:49.813Z,28.40
2019-04-16T16:07:16.896Z,27.60
2019-04-16T16:10:00.754Z,30.90
2019-04-16T16:12:28.178Z,32.20
2019-04-16T16:14:55.802Z,33.70
2019-04-16T16:17:23.417Z,32.30
2019-04-16T16:19:49.937Z,31.90
2019-04-16T16:22:16.497Z,32.90
2019-04-16T16:24:43.088Z,32.90
2019-04-16T16:27:09.738Z,32.30
2019-04-16T16:29:36.274Z,33.10
2019-04-16T16:32:04.322Z,33.70
2019-04-16T16:34:30.994Z,32.70
2019-04-16T16:36:58.616Z,33.50
2019-04-16T16:39:25.661Z,33.30
2019-04-16T16:41:52.453Z,34.20
2019-04-16T16:44:18.945Z,34.10
2019-04-16T16:46:56.610Z,33.80
2019-04-16T16:49:16.143Z,33.30
2019-04-16T16:51:44.727Z,34.50
2019-04-16T16:54:13.221Z,35.80
2019-04-16T16:56:47.198Z,36.10
2019-04-16T16:59:24.705Z,36.20
2019-04-16T17:02:02.248Z,36.90
2019-04-16T17:04:30.723Z,36.90
2019-04-16T17:06:57.212Z,37.50
2019-04-16T17:09:27.174Z,38.30
2019-04-16T17:11:55.845Z,46.70
2019-04-16T17:14:21.981Z,38.50
2019-04-16T17:16:48.807Z,41.00
2019-04-16T17:19:15.588Z,42.20
2019-04-16T17:21:42.263Z,39.60
2019-04-16T17:24:09.878Z,43.60
2019-04-16T17:26:36.327Z,41.70
2019-04-16T17:29:03.289Z,41.00
2019-04-16T17:31:29.915Z,42.00
2019-04-16T17:33:56.590Z,41.50
2019-04-16T17:36:23.067Z,41.90
2019-04-16T17:38:49.677Z,42.00
2019-04-16T17:41:23.739Z,43.00
2019-04-16T17:44:10.425Z,43.80
2019-04-16T17:46:55.637Z,44.80
2019-04-16T17:49:36.262Z,45.30
2019-04-16T17:52:13.841Z,46.50
2019-04-16T17:54:48.253Z,46.80
2019-04-16T17:57:16.593Z,47.30
2019-04-16T17:59:53.924Z,47.30
2019-04-16T18:02:38.733Z,47.90
2019-04-16T18:05:16.458Z,47.90
2019-04-16T18:08:03.800Z,47.90
2019-04-16T18:10:34.040Z,49.00
2019-04-16T18:13:06.459Z,49.20
2019-04-16T18:15:42.486Z,49.00
2019-04-16T18:18:31.511Z,48.90
2019-04-16T18:21:08.019Z,49.60
2019-04-16T18:23:36.444Z,49.90
2019-04-16T18:26:21.969Z,50.10
2019-04-16T18:29:07.398Z,50.40
2019-04-16T18:31:45.027Z,50.60
2019-04-16T18:34:30.149Z,50.70
2019-04-16T18:37:13.488Z,51.00
2019-04-16T18:39:44.559Z,50.60
2019-04-16T18:42:18.674Z,51.00
2019-04-16T18:44:51.334Z,50.10
2019-04-16T18:47:32.027Z,50.40
2019-04-16T18:50:00.426Z,50.70
2019-04-16T18:52:26.944Z,50.60
2019-04-16T18:54:53.612Z,51.20
2019-04-16T18:57:20.331Z,51.00
2019-04-16T18:59:46.771Z,50.90
2019-04-16T19:02:13.551Z,51.10
2019-04-16T19:04:40.223Z,51.50
2019-04-16T19:07:06.998Z,51.30
2019-04-16T19:09:33.611Z,51.50
2019-04-16T19:12:00.368Z,51.80
2019-04-16T19:14:27.002Z,51.50
2019-04-16T19:16:53.669Z,51.70
2019-04-16T19:19:22.183Z,52.90
2019-04-16T19:21:52.166Z,52.10
2019-04-16T19:24:17.413Z,52.30
2019-04-16T19:26:43.854Z,52.30
2019-04-16T19:29:14.388Z,52.50
2019-04-16T19:31:38.832Z,52.30
2019-04-16T19:34:09.647Z,52.40
2019-04-16T19:36:34.034Z,52.40
2019-04-16T19:39:00.868Z,52.60
2019-04-16T19:41:27.519Z,52.30
2019-04-16T19:43:54.151Z,52.70
2019-04-16T19:46:20.677Z,52.80
2019-04-16T19:48:47.148Z,52.90
2019-04-16T19:51:13.662Z,53.00
2019-04-16T19:53:44.581Z,52.80
2019-04-16T19:56:11.615Z,53.10
2019-04-16T19:58:58.646Z,52.90
2019-04-16T20:01:25.703Z,52.90
2019-04-16T20:03:52.515Z,52.90
2019-04-16T20:06:19.070Z,53.00
2019-04-16T20:08:45.720Z,53.20
2019-04-16T20:11:12.453Z,53.00
2019-04-16T20:13:39.170Z,53.40
2019-04-16T20:16:05.557Z,53.40
2019-04-16T20:18:32.074Z,53.00
2019-04-16T20:21:01.114Z,53.00
2019-04-16T20:23:27.306Z,53.20
2019-04-16T20:25:56.337Z,54.00
2019-04-16T20:28:22.316Z,53.40
2019-04-16T20:30:49.089Z,53.20
2019-04-16T20:33:15.848Z,53.30
2019-04-16T20:35:42.391Z,53.20
2019-04-16T20:38:09.101Z,53.10
2019-04-16T20:40:35.904Z,53.30
2019-04-16T20:43:02.606Z,53.10
2019-04-16T20:45:29.250Z,53.30
2019-04-16T20:47:55.789Z,53.90
2019-04-16T20:50:22.335Z,53.30
2019-04-16T20:52:49.008Z,53.20
2019-04-16T20:55:16.729Z,53.60
2019-04-16T20:57:43.416Z,53.60
2019-04-16T21:00:12.285Z,53.80
2019-04-16T21:02:39.155Z,53.90
2019-04-16T21:05:20.816Z,53.50
2019-04-16T21:07:34.466Z,53.50
2019-04-16T21:10:03.936Z,56.70
2019-04-16T21:12:30.633Z,53.90
2019-04-16T21:14:57.048Z,53.80
2019-04-16T21:17:23.680Z,53.90
2019-04-16T21:19:50.283Z,53.60
2019-04-16T21:22:17.218Z,53.70
2019-04-16T21:24:44.846Z,53.60
2019-04-16T21:27:11.515Z,53.60
2019-04-16T21:29:38.043Z,53.60
2019-04-16T21:32:21.532Z,53.90
2019-04-16T21:34:50.264Z,54.30
2019-04-16T21:37:36.891Z,54.20
2019-04-16T21:40:05.452Z,54.20
2019-04-16T21:42:34.984Z,54.00
2019-04-16T21:45:00.356Z,54.20
2019-04-16T21:47:26.928Z,54.30
2019-04-16T21:49:53.671Z,54.50
2019-04-16T21:52:23.215Z,54.50
2019-04-16T21:54:48.985Z,54.70
2019-04-16T21:57:15.491Z,54.50
2019-04-16T21:59:42.181Z,54.80
2019-04-16T22:02:13.930Z,54.90
2019-04-16T22:04:42.701Z,54.90
2019-04-16T22:07:09.400Z,55.20
2019-04-16T22:09:36.116Z,54.80
2019-04-16T22:12:03.761Z,55.10
2019-04-16T22:14:30.313Z,55.00
2019-04-16T22:16:59.908Z,55.00
2019-04-16T22:19:25.624Z,54.90
2019-04-16T22:21:52.128Z,54.90
2019-04-16T22:24:19.781Z,54.70
2019-04-16T22:26:47.040Z,54.70
2019-04-16T22:29:15.758Z,54.50
2019-04-16T22:31:41.968Z,54.90
2019-04-16T22:34:08.555Z,54.80
2019-04-16T22:36:35.227Z,54.90
2019-04-16T22:39:20.510Z,54.80
2019-04-16T22:41:51.406Z,54.90
2019-04-16T22:44:36.475Z,55.00
2019-04-16T22:47:14.143Z,55.30
2019-04-16T22:49:40.591Z,55.40
2019-04-16T22:52:07.371Z,55.40
2019-04-16T22:54:33.862Z,55.50
2019-04-16T22:57:03.200Z,55.40
2019-04-16T22:59:30.078Z,55.70
2019-04-16T23:01:56.850Z,56.10
2019-04-16T23:04:25.971Z,56.00
2019-04-16T23:06:53.006Z,56.10
2019-04-16T23:09:20.633Z,55.90
2019-04-16T23:11:47.288Z,55.60
2019-04-16T23:14:13.819Z,55.40
2019-04-16T23:16:42.750Z,55.70
2019-04-16T23:19:08.567Z,55.80
2019-04-16T23:21:35.116Z,55.80
2019-04-16T23:24:01.821Z,55.60
2019-04-16T23:26:32.098Z,55.60
2019-04-16T23:28:58.703Z,55.50
2019-04-16T23:31:25.357Z,55.60
2019-04-16T23:33:51.853Z,55.80
2019-04-16T23:36:18.348Z,55.90
2019-04-16T23:38:44.789Z,56.10
2019-04-16T23:41:15.538Z,56.00
2019-04-16T23:43:41.930Z,56.10
2019-04-16T23:46:16.098Z,56.10
2019-04-16T23:48:44.838Z,56.50
2019-04-16T23:51:17.735Z,56.60
2019-04-16T23:53:49.069Z,56.50
2019-04-16T23:56:17.905Z,56.30
2019-04-16T23:58:47.815Z,56.30
